Romeoville, Illinois
Current Conditions -  °F | °C
As of 10:15 PM on Wednesday 28 Jan 2015 (Local Time) from KLOT Reporting Station
Drizzle Drizzle  
Wind Chill: 22°   Ceiling: 12000
Heat Index: 33°   Visibility: 10mi
Dew Point: 23°   Wind: 20mph
Humidity: 67%   Direction: 170°S
Pressure: 29.87"   Gusts: 28mph
Location:  41.64°N, 88.08°W
Report Text: KLOT 290415Z AUTO 17017G24KT 10SM -DZ SCT090 BKN120 01/M05 A2987 RMK AO2 T00081048
Loading
Personal Weather Stations






























Interactive Weather Map New forecast layout! Learn more

10-Day Weather Forecast

Advertisements
Track Severe Weather on mobile